South River — ICJH — position and weather

sailwx.info

Track history (hours):
 
Tides and Currents Weather Stations Pressure Air Temp Water Temp Dewpoint Dewpoint Depression Visibility Wind Speed Wind Dir Waves Ship Positions

South River

Last reported at 2017-Sep-22 00:09 UTC. Time now 2017-Sep-22 10:04 UTC.
Position N 50°21' E 000°09'.

Length 158 m; draft 8.4 m.

Type: Cargo ship. MMSI: 247286300.

Date/timePositionNaut miles runAvg speedWind from/ knotsBaromVisibWave heightAir tempDewpointWater temp
2017-Sep-22 00:09N 50°21' E 000°09'513.0
2017-Sep-21 23:48N 50°20' E 000°02'11414.1
2017-Sep-21 15:45N 49°49' W 002°49'310.9
2017-Sep-21 15:28N 49°48' W 002°53'910.7
2017-Sep-21 14:38N 49°43' W 003°05'110.5
2017-Sep-21 14:30N 49°43' W 003°07'710.5
2017-Sep-21 13:50N 49°39' W 003°16'310.4
2017-Sep-21 13:30N 49°37' W 003°21'7511.0
2017-Sep-21 06:41N 48°59' W 004°59'212.7
2017-Sep-21 06:31N 48°57' W 005°02'712.9
2017-Sep-21 05:57N 48°54' W 005°12'59511.8
2017-Sep-19 03:24N 39°33' W 009°50'511.6
2017-Sep-19 03:00N 39°28' W 009°51'611.7
2017-Sep-19 02:30N 39°23' W 009°50'611.6
2017-Sep-19 02:00N 39°17' W 009°50'611.9
2017-Sep-19 01:30N 39°11' W 009°51'612.0
2017-Sep-19 01:00N 39°05' W 009°51'611.7
2017-Sep-19 00:30N 38°59' W 009°51'611.9
2017-Sep-19 00:00N 38°53' W 009°51'612.0
2017-Sep-18 23:30N 38°47' W 009°51'611.8
2017-Sep-18 23:00N 38°41' W 009°51'611.5
2017-Sep-18 22:30N 38°36' W 009°50'611.1
2017-Sep-18 22:00N 38°30' W 009°49'611.1
2017-Sep-18 21:30N 38°25' W 009°47'611.4
2017-Sep-18 21:00N 38°19' W 009°45'611.5
2017-Sep-18 20:29N 38°13' W 009°43'611.7
2017-Sep-18 20:00N 38°08' W 009°42'611.5
2017-Sep-18 19:30N 38°02' W 009°40'611.3
2017-Sep-18 19:00N 37°57' W 009°39'611.2
2017-Sep-18 18:30N 37°51' W 009°37'611.1
2017-Sep-18 18:00N 37°46' W 009°36'611.4
2017-Sep-18 17:30N 37°40' W 009°34'611.4
2017-Sep-18 17:00N 37°35' W 009°32'510.7
2017-Sep-18 16:30N 37°30' W 009°31'611.3
2017-Sep-18 16:00N 37°24' W 009°29'5310.7
2017-Sep-18 11:00N 36°40' W 008°52'611.4
2017-Sep-18 10:30N 36°38' W 008°45'16311.8
2017-Sep-17 20:42N 35°60' W 005°29'2 9.7
2017-Sep-17 20:30N 36°00' W 005°26'4 9.1
2017-Sep-17 20:00N 36°01' W 005°21'4 8.4
2017-Sep-17 19:30N 36°02' W 005°16'  
2017-Sep-15 07:22N 37°42' E 009°17'412.3
2017-Sep-15 07:00N 37°42' E 009°23'612.1
2017-Sep-15 06:30N 37°41' E 009°30'14312.0
2017-Sep-14 18:35N 37°04' E 012°24'112.2
2017-Sep-14 18:30N 37°04' E 012°26'612.1
2017-Sep-14 18:00N 37°02' E 012°33'612.0
2017-Sep-14 17:30N 37°00' E 012°40'612.1
2017-Sep-14 17:00N 36°58' E 012°47'612.1
2017-Sep-14 16:29N 36°57' E 012°55'612.2
2017-Sep-14 16:00N 36°55' E 013°02'612.2
2017-Sep-14 15:30N 36°54' E 013°09'612.2
2017-Sep-14 15:00N 36°52' E 013°17'612.1
2017-Sep-14 14:30N 36°51' E 013°24'611.9
2017-Sep-14 14:00N 36°49' E 013°31'611.8
2017-Sep-14 13:30N 36°48' E 013°38'611.5
2017-Sep-14 13:00N 36°47' E 013°45'611.3
2017-Sep-14 12:30N 36°45' E 013°52'611.3
2017-Sep-14 12:00N 36°44' E 013°59'611.6
2017-Sep-14 11:30N 36°43' E 014°06'612.0
2017-Sep-14 10:59N 36°42' E 014°14'612.4
2017-Sep-14 10:30N 36°41' E 014°21'612.2
2017-Sep-14 10:00N 36°39' E 014°29'612.1
2017-Sep-14 09:30N 36°38' E 014°36'611.9
2017-Sep-14 09:00N 36°37' E 014°43'611.8
2017-Sep-14 08:30N 36°36' E 014°51'1411.8
2017-Sep-14 07:20N 36°35' E 015°08'13012.1
2017-Sep-13 20:37N 36°56' E 017°48'111.9
2017-Sep-13 20:30N 36°56' E 017°50'33510.9
2017-Sep-12 13:47N 37°13' E 024°49'312.2
2017-Sep-12 13:30N 37°15' E 024°52'612.3
2017-Sep-12 13:00N 37°19' E 024°59'610.8
2017-Sep-12 12:30N 37°24' E 025°00'1 2.9
2017-Sep-12 12:00N 37°25' E 024°59'0 0.1
2017-Sep-12 11:27N 37°25' E 024°59'0 0.1
2017-Sep-12 11:00N 37°25' E 024°59'0 0.0
2017-Sep-12 10:30N 37°25' E 024°59'0 0.0
2017-Sep-12 09:57N 37°25' E 024°59'0 0.2
2017-Sep-12 09:31N 37°25' E 024°59'1 2.7
2017-Sep-12 09:01N 37°25' E 025°01'3 6.8
2017-Sep-12 08:31N 37°26' E 025°05'5 9.3
2017-Sep-12 08:00N 37°29' E 025°10'611.4
2017-Sep-12 07:30N 37°31' E 025°16'611.1
2017-Sep-12 06:59N 37°36' E 025°21'812.8
2017-Sep-12 06:21N 37°44' E 025°21'613.5
2017-Sep-12 05:55N 37°50' E 025°21'613.0
2017-Sep-12 05:29N 37°55' E 025°21'  
Track history (hours):
 
Tides and Currents Weather Stations Pressure Air Temp Water Temp Dewpoint Dewpoint Depression Visibility Wind Speed Wind Dir Waves Ship Positions

South River

Last reported at 2017-Sep-22 00:09 UTC. Time now 2017-Sep-22 10:04 UTC.
Position N 50°21' E 000°09'.

Length 158 m; draft 8.4 m.

Type: Cargo ship. MMSI: 247286300.

Date/timePositionNaut miles runAvg speedWind from/ knotsBaromVisibWave heightAir tempDewpointWater temp
2017-Sep-22 00:09N 50°21' E 000°09'513.0
2017-Sep-21 23:48N 50°20' E 000°02'11414.1
2017-Sep-21 15:45N 49°49' W 002°49'310.9
2017-Sep-21 15:28N 49°48' W 002°53'910.7
2017-Sep-21 14:38N 49°43' W 003°05'110.5
2017-Sep-21 14:30N 49°43' W 003°07'710.5
2017-Sep-21 13:50N 49°39' W 003°16'310.4
2017-Sep-21 13:30N 49°37' W 003°21'7511.0
2017-Sep-21 06:41N 48°59' W 004°59'212.7
2017-Sep-21 06:31N 48°57' W 005°02'712.9
2017-Sep-21 05:57N 48°54' W 005°12'59511.8
2017-Sep-19 03:24N 39°33' W 009°50'511.6
2017-Sep-19 03:00N 39°28' W 009°51'611.7
2017-Sep-19 02:30N 39°23' W 009°50'611.6
2017-Sep-19 02:00N 39°17' W 009°50'611.9
2017-Sep-19 01:30N 39°11' W 009°51'612.0
2017-Sep-19 01:00N 39°05' W 009°51'611.7
2017-Sep-19 00:30N 38°59' W 009°51'611.9
2017-Sep-19 00:00N 38°53' W 009°51'612.0
2017-Sep-18 23:30N 38°47' W 009°51'611.8
2017-Sep-18 23:00N 38°41' W 009°51'611.5
2017-Sep-18 22:30N 38°36' W 009°50'611.1
2017-Sep-18 22:00N 38°30' W 009°49'611.1
2017-Sep-18 21:30N 38°25' W 009°47'611.4
2017-Sep-18 21:00N 38°19' W 009°45'611.5
2017-Sep-18 20:29N 38°13' W 009°43'611.7
2017-Sep-18 20:00N 38°08' W 009°42'611.5
2017-Sep-18 19:30N 38°02' W 009°40'611.3
2017-Sep-18 19:00N 37°57' W 009°39'611.2
2017-Sep-18 18:30N 37°51' W 009°37'611.1
2017-Sep-18 18:00N 37°46' W 009°36'611.4
2017-Sep-18 17:30N 37°40' W 009°34'611.4
2017-Sep-18 17:00N 37°35' W 009°32'510.7
2017-Sep-18 16:30N 37°30' W 009°31'611.3
2017-Sep-18 16:00N 37°24' W 009°29'5310.7
2017-Sep-18 11:00N 36°40' W 008°52'611.4
2017-Sep-18 10:30N 36°38' W 008°45'16311.8
2017-Sep-17 20:42N 35°60' W 005°29'2 9.7
2017-Sep-17 20:30N 36°00' W 005°26'4 9.1
2017-Sep-17 20:00N 36°01' W 005°21'4 8.4
2017-Sep-17 19:30N 36°02' W 005°16'  
2017-Sep-15 07:22N 37°42' E 009°17'412.3
2017-Sep-15 07:00N 37°42' E 009°23'612.1
2017-Sep-15 06:30N 37°41' E 009°30'14312.0
2017-Sep-14 18:35N 37°04' E 012°24'112.2
2017-Sep-14 18:30N 37°04' E 012°26'612.1
2017-Sep-14 18:00N 37°02' E 012°33'612.0
2017-Sep-14 17:30N 37°00' E 012°40'612.1
2017-Sep-14 17:00N 36°58' E 012°47'612.1
2017-Sep-14 16:29N 36°57' E 012°55'612.2
2017-Sep-14 16:00N 36°55' E 013°02'612.2
2017-Sep-14 15:30N 36°54' E 013°09'612.2
2017-Sep-14 15:00N 36°52' E 013°17'612.1
2017-Sep-14 14:30N 36°51' E 013°24'611.9
2017-Sep-14 14:00N 36°49' E 013°31'611.8
2017-Sep-14 13:30N 36°48' E 013°38'611.5
2017-Sep-14 13:00N 36°47' E 013°45'611.3
2017-Sep-14 12:30N 36°45' E 013°52'611.3
2017-Sep-14 12:00N 36°44' E 013°59'611.6
2017-Sep-14 11:30N 36°43' E 014°06'612.0
2017-Sep-14 10:59N 36°42' E 014°14'612.4
2017-Sep-14 10:30N 36°41' E 014°21'612.2
2017-Sep-14 10:00N 36°39' E 014°29'612.1
2017-Sep-14 09:30N 36°38' E 014°36'611.9
2017-Sep-14 09:00N 36°37' E 014°43'611.8
2017-Sep-14 08:30N 36°36' E 014°51'1411.8
2017-Sep-14 07:20N 36°35' E 015°08'13012.1
2017-Sep-13 20:37N 36°56' E 017°48'111.9
2017-Sep-13 20:30N 36°56' E 017°50'33510.9
2017-Sep-12 13:47N 37°13' E 024°49'312.2
2017-Sep-12 13:30N 37°15' E 024°52'612.3
2017-Sep-12 13:00N 37°19' E 024°59'610.8
2017-Sep-12 12:30N 37°24' E 025°00'1 2.9
2017-Sep-12 12:00N 37°25' E 024°59'0 0.1
2017-Sep-12 11:27N 37°25' E 024°59'0 0.1
2017-Sep-12 11:00N 37°25' E 024°59'0 0.0
2017-Sep-12 10:30N 37°25' E 024°59'0 0.0
2017-Sep-12 09:57N 37°25' E 024°59'0 0.2
2017-Sep-12 09:31N 37°25' E 024°59'1 2.7
2017-Sep-12 09:01N 37°25' E 025°01'3 6.8
2017-Sep-12 08:31N 37°26' E 025°05'5 9.3
2017-Sep-12 08:00N 37°29' E 025°10'611.4
2017-Sep-12 07:30N 37°31' E 025°16'611.1
2017-Sep-12 06:59N 37°36' E 025°21'812.8
2017-Sep-12 06:21N 37°44' E 025°21'613.5
2017-Sep-12 05:55N 37°50' E 025°21'613.0
2017-Sep-12 05:29N 37°55' E 025°21'  

Dump ship's entire track history